sensor_id;sensor_type;location;lat;lon;timestamp;P1;durP1;ratioP1;P2;durP2;ratioP2
28968;SDS011;16076;51.194;6.642;2022-07-10T00:00:32;5.03;;;1.50;;
28968;SDS011;16076;51.194;6.642;2022-07-10T00:02:58;5.63;;;1.40;;
28968;SDS011;16076;51.194;6.642;2022-07-10T00:05:24;2.58;;;1.30;;
28968;SDS011;16076;51.194;6.642;2022-07-10T00:07:50;7.22;;;1.85;;
28968;SDS011;16076;51.194;6.642;2022-07-10T00:10:17;7.60;;;1.63;;
28968;SDS011;16076;51.194;6.642;2022-07-10T00:12:44;4.43;;;1.30;;
28968;SDS011;16076;51.194;6.642;2022-07-10T00:15:10;6.93;;;1.58;;
28968;SDS011;16076;51.194;6.642;2022-07-10T00:17:37;7.38;;;1.70;;
28968;SDS011;16076;51.194;6.642;2022-07-10T00:20:04;7.22;;;2.15;;
28968;SDS011;16076;51.194;6.642;2022-07-10T00:22:32;7.35;;;1.60;;
28968;SDS011;16076;51.194;6.642;2022-07-10T00:25:00;3.05;;;1.20;;
28968;SDS011;16076;51.194;6.642;2022-07-10T00:27:26;3.80;;;1.30;;
28968;SDS011;16076;51.194;6.642;2022-07-10T00:29:52;8.77;;;1.48;;
28968;SDS011;16076;51.194;6.642;2022-07-10T00:32:18;6.63;;;1.30;;
28968;SDS011;16076;51.194;6.642;2022-07-10T00:34:43;7.60;;;1.63;;
28968;SDS011;16076;51.194;6.642;2022-07-10T00:37:09;1.55;;;1.20;;
28968;SDS011;16076;51.194;6.642;2022-07-10T00:39:36;4.10;;;1.23;;
28968;SDS011;16076;51.194;6.642;2022-07-10T00:42:08;5.60;;;1.67;;
28968;SDS011;16076;51.194;6.642;2022-07-10T00:44:39;5.75;;;1.35;;
28968;SDS011;16076;51.194;6.642;2022-07-10T00:47:06;6.68;;;1.70;;
28968;SDS011;16076;51.194;6.642;2022-07-10T00:49:34;6.50;;;1.33;;
28968;SDS011;16076;51.194;6.642;2022-07-10T00:52:02;5.40;;;1.30;;
28968;SDS011;16076;51.194;6.642;2022-07-10T00:54:34;6.80;;;1.90;;
28968;SDS011;16076;51.194;6.642;2022-07-10T00:57:00;8.65;;;1.58;;
28968;SDS011;16076;51.194;6.642;2022-07-10T00:59:31;5.63;;;1.58;;
28968;SDS011;16076;51.194;6.642;2022-07-10T01:01:57;6.50;;;1.77;;
28968;SDS011;16076;51.194;6.642;2022-07-10T01:04:24;7.88;;;1.98;;
28968;SDS011;16076;51.194;6.642;2022-07-10T01:06:50;5.00;;;1.55;;
28968;SDS011;16076;51.194;6.642;2022-07-10T01:09:17;5.32;;;2.00;;
28968;SDS011;16076;51.194;6.642;2022-07-10T01:11:43;10.20;;;2.63;;
28968;SDS011;16076;51.194;6.642;2022-07-10T01:14:09;8.70;;;1.95;;
28968;SDS011;16076;51.194;6.642;2022-07-10T01:16:35;5.22;;;1.85;;
28968;SDS011;16076;51.194;6.642;2022-07-10T01:19:01;3.78;;;1.50;;
28968;SDS011;16076;51.194;6.642;2022-07-10T01:21:28;8.23;;;2.40;;
28968;SDS011;16076;51.194;6.642;2022-07-10T01:23:57;5.00;;;1.40;;
28968;SDS011;16076;51.194;6.642;2022-07-10T01:26:23;8.63;;;1.60;;
28968;SDS011;16076;51.194;6.642;2022-07-10T01:28:50;3.85;;;1.48;;
28968;SDS011;16076;51.194;6.642;2022-07-10T01:31:18;3.25;;;1.52;;
28968;SDS011;16076;51.194;6.642;2022-07-10T01:33:44;6.18;;;1.92;;
28968;SDS011;16076;51.194;6.642;2022-07-10T01:36:13;4.43;;;1.60;;
28968;SDS011;16076;51.194;6.642;2022-07-10T01:38:40;4.93;;;1.80;;
28968;SDS011;16076;51.194;6.642;2022-07-10T01:41:06;8.02;;;1.88;;
28968;SDS011;16076;51.194;6.642;2022-07-10T01:43:33;7.95;;;1.92;;
28968;SDS011;16076;51.194;6.642;2022-07-10T01:46:02;6.20;;;1.63;;
28968;SDS011;16076;51.194;6.642;2022-07-10T01:48:29;9.82;;;1.48;;
28968;SDS011;16076;51.194;6.642;2022-07-10T01:50:55;6.60;;;2.17;;
28968;SDS011;16076;51.194;6.642;2022-07-10T01:53:22;5.78;;;1.30;;
28968;SDS011;16076;51.194;6.642;2022-07-10T01:55:48;5.13;;;1.98;;
28968;SDS011;16076;51.194;6.642;2022-07-10T01:58:13;6.90;;;1.80;;
28968;SDS011;16076;51.194;6.642;2022-07-10T02:00:39;4.22;;;1.52;;
28968;SDS011;16076;51.194;6.642;2022-07-10T02:03:05;5.53;;;2.20;;
28968;SDS011;16076;51.194;6.642;2022-07-10T02:05:49;4.45;;;1.30;;
28968;SDS011;16076;51.194;6.642;2022-07-10T02:08:15;8.18;;;1.63;;
28968;SDS011;16076;51.194;6.642;2022-07-10T02:10:40;5.22;;;1.63;;
28968;SDS011;16076;51.194;6.642;2022-07-10T02:13:06;7.78;;;1.50;;
28968;SDS011;16076;51.194;6.642;2022-07-10T02:15:32;4.68;;;1.45;;
28968;SDS011;16076;51.194;6.642;2022-07-10T02:17:58;7.53;;;1.80;;
28968;SDS011;16076;51.194;6.642;2022-07-10T02:20:23;3.42;;;1.40;;
28968;SDS011;16076;51.194;6.642;2022-07-10T02:22:49;7.20;;;1.65;;
28968;SDS011;16076;51.194;6.642;2022-07-10T02:25:15;13.18;;;1.98;;
28968;SDS011;16076;51.194;6.642;2022-07-10T02:27:43;6.18;;;1.60;;
28968;SDS011;16076;51.194;6.642;2022-07-10T02:30:09;6.57;;;1.75;;
28968;SDS011;16076;51.194;6.642;2022-07-10T02:32:35;7.88;;;1.73;;
28968;SDS011;16076;51.194;6.642;2022-07-10T02:35:01;5.38;;;1.70;;
28968;SDS011;16076;51.194;6.642;2022-07-10T02:37:29;8.32;;;1.92;;
28968;SDS011;16076;51.194;6.642;2022-07-10T02:39:55;10.35;;;1.88;;
28968;SDS011;16076;51.194;6.642;2022-07-10T02:42:20;4.82;;;1.60;;
28968;SDS011;16076;51.194;6.642;2022-07-10T02:44:46;5.97;;;1.80;;
28968;SDS011;16076;51.194;6.642;2022-07-10T02:47:12;5.10;;;1.80;;
28968;SDS011;16076;51.194;6.642;2022-07-10T02:49:38;6.40;;;2.15;;
28968;SDS011;16076;51.194;6.642;2022-07-10T02:52:03;9.93;;;2.47;;
28968;SDS011;16076;51.194;6.642;2022-07-10T02:54:30;5.32;;;1.70;;
28968;SDS011;16076;51.194;6.642;2022-07-10T02:56:55;5.53;;;1.92;;
28968;SDS011;16076;51.194;6.642;2022-07-10T02:59:21;7.32;;;1.90;;
28968;SDS011;16076;51.194;6.642;2022-07-10T03:01:47;6.07;;;1.88;;
28968;SDS011;16076;51.194;6.642;2022-07-10T03:04:12;9.35;;;2.03;;
28968;SDS011;16076;51.194;6.642;2022-07-10T03:06:38;8.55;;;1.80;;
28968;SDS011;16076;51.194;6.642;2022-07-10T03:09:04;9.68;;;2.38;;
28968;SDS011;16076;51.194;6.642;2022-07-10T03:11:29;5.18;;;2.00;;
28968;SDS011;16076;51.194;6.642;2022-07-10T03:13:55;4.90;;;1.70;;
28968;SDS011;16076;51.194;6.642;2022-07-10T03:16:21;3.90;;;1.83;;
28968;SDS011;16076;51.194;6.642;2022-07-10T03:18:47;7.18;;;2.42;;
28968;SDS011;16076;51.194;6.642;2022-07-10T03:21:12;7.18;;;1.77;;
28968;SDS011;16076;51.194;6.642;2022-07-10T03:23:38;6.30;;;2.20;;
28968;SDS011;16076;51.194;6.642;2022-07-10T03:26:05;6.40;;;1.75;;
28968;SDS011;16076;51.194;6.642;2022-07-10T03:28:31;9.15;;;2.22;;
28968;SDS011;16076;51.194;6.642;2022-07-10T03:30:56;5.72;;;2.00;;
28968;SDS011;16076;51.194;6.642;2022-07-10T03:33:22;8.23;;;2.00;;
28968;SDS011;16076;51.194;6.642;2022-07-10T03:35:48;6.15;;;2.05;;
28968;SDS011;16076;51.194;6.642;2022-07-10T03:38:14;8.45;;;1.88;;
28968;SDS011;16076;51.194;6.642;2022-07-10T03:40:42;5.03;;;2.42;;
28968;SDS011;16076;51.194;6.642;2022-07-10T03:43:07;6.35;;;1.90;;
28968;SDS011;16076;51.194;6.642;2022-07-10T03:45:33;7.70;;;2.25;;
28968;SDS011;16076;51.194;6.642;2022-07-10T03:47:59;9.63;;;1.73;;
28968;SDS011;16076;51.194;6.642;2022-07-10T03:50:25;7.28;;;1.80;;
28968;SDS011;16076;51.194;6.642;2022-07-10T03:52:50;7.25;;;2.30;;
28968;SDS011;16076;51.194;6.642;2022-07-10T03:55:18;5.82;;;2.13;;
28968;SDS011;16076;51.194;6.642;2022-07-10T03:57:44;8.00;;;2.20;;
28968;SDS011;16076;51.194;6.642;2022-07-10T04:00:19;5.32;;;2.17;;
28968;SDS011;16076;51.194;6.642;2022-07-10T04:05:22;4.60;;;2.13;;
28968;SDS011;16076;51.194;6.642;2022-07-10T04:07:48;8.25;;;2.22;;
28968;SDS011;16076;51.194;6.642;2022-07-10T04:10:14;4.88;;;2.35;;
28968;SDS011;16076;51.194;6.642;2022-07-10T04:12:41;5.28;;;2.30;;
28968;SDS011;16076;51.194;6.642;2022-07-10T04:15:07;6.75;;;2.20;;
28968;SDS011;16076;51.194;6.642;2022-07-10T04:17:33;8.90;;;2.22;;
28968;SDS011;16076;51.194;6.642;2022-07-10T04:19:59;5.95;;;2.35;;
28968;SDS011;16076;51.194;6.642;2022-07-10T04:22:25;6.15;;;2.20;;
28968;SDS011;16076;51.194;6.642;2022-07-10T04:24:52;7.10;;;2.42;;
28968;SDS011;16076;51.194;6.642;2022-07-10T04:27:18;4.25;;;2.03;;
28968;SDS011;16076;51.194;6.642;2022-07-10T04:29:47;7.88;;;2.17;;
28968;SDS011;16076;51.194;6.642;2022-07-10T04:32:13;7.32;;;2.60;;
28968;SDS011;16076;51.194;6.642;2022-07-10T04:34:39;4.45;;;2.05;;
28968;SDS011;16076;51.194;6.642;2022-07-10T04:37:05;5.40;;;2.03;;
28968;SDS011;16076;51.194;6.642;2022-07-10T04:39:32;8.68;;;2.40;;
28968;SDS011;16076;51.194;6.642;2022-07-10T04:41:59;6.88;;;2.45;;
28968;SDS011;16076;51.194;6.642;2022-07-10T04:44:24;7.43;;;2.55;;
28968;SDS011;16076;51.194;6.642;2022-07-10T04:46:50;7.57;;;2.97;;
28968;SDS011;16076;51.194;6.642;2022-07-10T04:49:16;9.13;;;2.78;;
28968;SDS011;16076;51.194;6.642;2022-07-10T04:51:44;4.78;;;2.60;;
28968;SDS011;16076;51.194;6.642;2022-07-10T04:54:10;7.63;;;2.50;;
28968;SDS011;16076;51.194;6.642;2022-07-10T04:56:36;5.28;;;2.35;;
28968;SDS011;16076;51.194;6.642;2022-07-10T04:59:01;8.63;;;2.42;;
28968;SDS011;16076;51.194;6.642;2022-07-10T05:01:27;9.40;;;2.67;;
28968;SDS011;16076;51.194;6.642;2022-07-10T05:03:53;4.57;;;2.70;;
28968;SDS011;16076;51.194;6.642;2022-07-10T05:06:19;4.88;;;2.25;;
28968;SDS011;16076;51.194;6.642;2022-07-10T05:08:45;8.90;;;2.40;;
28968;SDS011;16076;51.194;6.642;2022-07-10T05:11:11;6.68;;;2.20;;
28968;SDS011;16076;51.194;6.642;2022-07-10T05:13:37;11.13;;;2.47;;
28968;SDS011;16076;51.194;6.642;2022-07-10T05:16:03;8.80;;;2.85;;
28968;SDS011;16076;51.194;6.642;2022-07-10T05:18:30;8.30;;;2.58;;
28968;SDS011;16076;51.194;6.642;2022-07-10T05:20:55;9.23;;;2.78;;
28968;SDS011;16076;51.194;6.642;2022-07-10T05:23:21;4.05;;;2.10;;
28968;SDS011;16076;51.194;6.642;2022-07-10T05:25:49;7.75;;;2.40;;
28968;SDS011;16076;51.194;6.642;2022-07-10T05:28:15;11.23;;;3.05;;
28968;SDS011;16076;51.194;6.642;2022-07-10T05:30:41;7.18;;;2.50;;
28968;SDS011;16076;51.194;6.642;2022-07-10T05:33:07;5.43;;;2.38;;
28968;SDS011;16076;51.194;6.642;2022-07-10T05:35:33;10.00;;;2.67;;
28968;SDS011;16076;51.194;6.642;2022-07-10T05:37:59;8.68;;;2.80;;
28968;SDS011;16076;51.194;6.642;2022-07-10T05:40:25;7.88;;;2.85;;
28968;SDS011;16076;51.194;6.642;2022-07-10T05:42:51;6.60;;;2.42;;
28968;SDS011;16076;51.194;6.642;2022-07-10T05:45:17;5.28;;;2.13;;
28968;SDS011;16076;51.194;6.642;2022-07-10T05:47:42;11.57;;;2.72;;
28968;SDS011;16076;51.194;6.642;2022-07-10T05:50:10;5.45;;;2.22;;
28968;SDS011;16076;51.194;6.642;2022-07-10T05:52:36;5.75;;;2.33;;
28968;SDS011;16076;51.194;6.642;2022-07-10T05:55:05;6.18;;;2.10;;
28968;SDS011;16076;51.194;6.642;2022-07-10T05:57:31;7.45;;;2.50;;
28968;SDS011;16076;51.194;6.642;2022-07-10T05:59:57;8.73;;;1.95;;
28968;SDS011;16076;51.194;6.642;2022-07-10T06:02:23;9.85;;;1.98;;
28968;SDS011;16076;51.194;6.642;2022-07-10T06:04:49;8.35;;;2.38;;
28968;SDS011;16076;51.194;6.642;2022-07-10T06:07:15;7.53;;;2.03;;
28968;SDS011;16076;51.194;6.642;2022-07-10T06:09:41;7.55;;;2.10;;
28968;SDS011;16076;51.194;6.642;2022-07-10T06:12:07;4.40;;;2.00;;
28968;SDS011;16076;51.194;6.642;2022-07-10T06:14:33;5.57;;;2.08;;
28968;SDS011;16076;51.194;6.642;2022-07-10T06:17:01;5.20;;;2.15;;
28968;SDS011;16076;51.194;6.642;2022-07-10T06:19:27;5.70;;;2.33;;
28968;SDS011;16076;51.194;6.642;2022-07-10T06:21:52;6.18;;;2.28;;
28968;SDS011;16076;51.194;6.642;2022-07-10T06:24:39;7.65;;;2.08;;
28968;SDS011;16076;51.194;6.642;2022-07-10T06:27:05;9.32;;;2.45;;
28968;SDS011;16076;51.194;6.642;2022-07-10T06:29:31;7.05;;;2.10;;
28968;SDS011;16076;51.194;6.642;2022-07-10T06:31:56;7.30;;;2.53;;
28968;SDS011;16076;51.194;6.642;2022-07-10T06:34:22;10.18;;;2.08;;
28968;SDS011;16076;51.194;6.642;2022-07-10T06:36:48;6.82;;;2.15;;
28968;SDS011;16076;51.194;6.642;2022-07-10T06:39:14;9.98;;;2.40;;
28968;SDS011;16076;51.194;6.642;2022-07-10T06:41:39;7.50;;;2.60;;
28968;SDS011;16076;51.194;6.642;2022-07-10T06:44:05;4.28;;;1.95;;
28968;SDS011;16076;51.194;6.642;2022-07-10T06:46:31;6.55;;;1.63;;
28968;SDS011;16076;51.194;6.642;2022-07-10T06:48:57;5.55;;;1.95;;
28968;SDS011;16076;51.194;6.642;2022-07-10T06:51:24;8.65;;;2.05;;
28968;SDS011;16076;51.194;6.642;2022-07-10T06:53:50;4.60;;;1.48;;
28968;SDS011;16076;51.194;6.642;2022-07-10T06:56:16;7.97;;;1.70;;
28968;SDS011;16076;51.194;6.642;2022-07-10T06:58:43;4.85;;;2.10;;
28968;SDS011;16076;51.194;6.642;2022-07-10T07:01:08;5.45;;;1.63;;
28968;SDS011;16076;51.194;6.642;2022-07-10T07:03:34;10.05;;;2.00;;
28968;SDS011;16076;51.194;6.642;2022-07-10T07:06:00;6.00;;;1.80;;
28968;SDS011;16076;51.194;6.642;2022-07-10T07:08:26;10.70;;;2.15;;
28968;SDS011;16076;51.194;6.642;2022-07-10T07:10:54;9.38;;;1.75;;
28968;SDS011;16076;51.194;6.642;2022-07-10T07:13:20;8.52;;;2.20;;
28968;SDS011;16076;51.194;6.642;2022-07-10T07:15:46;4.43;;;1.70;;
28968;SDS011;16076;51.194;6.642;2022-07-10T07:18:22;4.10;;;1.23;;
28968;SDS011;16076;51.194;6.642;2022-07-10T07:20:56;4.40;;;1.70;;
28968;SDS011;16076;51.194;6.642;2022-07-10T07:23:41;5.28;;;1.75;;
28968;SDS011;16076;51.194;6.642;2022-07-10T07:26:09;4.68;;;1.60;;
28968;SDS011;16076;51.194;6.642;2022-07-10T07:28:35;5.72;;;1.70;;
28968;SDS011;16076;51.194;6.642;2022-07-10T07:31:00;4.35;;;1.67;;
28968;SDS011;16076;51.194;6.642;2022-07-10T07:33:26;6.93;;;2.05;;
28968;SDS011;16076;51.194;6.642;2022-07-10T07:35:52;6.88;;;2.13;;
28968;SDS011;16076;51.194;6.642;2022-07-10T07:38:18;7.43;;;1.58;;
28968;SDS011;16076;51.194;6.642;2022-07-10T07:40:43;6.15;;;1.55;;
28968;SDS011;16076;51.194;6.642;2022-07-10T07:43:09;12.43;;;1.83;;
28968;SDS011;16076;51.194;6.642;2022-07-10T07:45:35;6.80;;;1.70;;
28968;SDS011;16076;51.194;6.642;2022-07-10T07:48:01;4.05;;;1.10;;
28968;SDS011;16076;51.194;6.642;2022-07-10T07:50:30;4.30;;;1.20;;
28968;SDS011;16076;51.194;6.642;2022-07-10T07:52:57;6.28;;;1.52;;
28968;SDS011;16076;51.194;6.642;2022-07-10T07:55:24;4.28;;;1.65;;
28968;SDS011;16076;51.194;6.642;2022-07-10T07:57:51;7.40;;;1.52;;
28968;SDS011;16076;51.194;6.642;2022-07-10T08:00:18;8.85;;;1.75;;
28968;SDS011;16076;51.194;6.642;2022-07-10T08:02:47;8.68;;;1.88;;
28968;SDS011;16076;51.194;6.642;2022-07-10T08:05:13;5.55;;;1.63;;
28968;SDS011;16076;51.194;6.642;2022-07-10T08:07:41;7.03;;;1.83;;
28968;SDS011;16076;51.194;6.642;2022-07-10T08:10:08;8.90;;;1.92;;
28968;SDS011;16076;51.194;6.642;2022-07-10T08:12:36;5.63;;;1.45;;
28968;SDS011;16076;51.194;6.642;2022-07-10T08:15:04;7.25;;;2.35;;
28968;SDS011;16076;51.194;6.642;2022-07-10T08:17:31;8.23;;;1.92;;
28968;SDS011;16076;51.194;6.642;2022-07-10T08:19:57;5.65;;;1.70;;
28968;SDS011;16076;51.194;6.642;2022-07-10T08:22:23;7.38;;;2.28;;
28968;SDS011;16076;51.194;6.642;2022-07-10T08:24:49;6.22;;;1.90;;
28968;SDS011;16076;51.194;6.642;2022-07-10T08:27:14;6.20;;;1.70;;
28968;SDS011;16076;51.194;6.642;2022-07-10T08:29:41;6.32;;;1.58;;
28968;SDS011;16076;51.194;6.642;2022-07-10T08:32:07;4.70;;;1.50;;
28968;SDS011;16076;51.194;6.642;2022-07-10T08:34:34;5.25;;;1.55;;
28968;SDS011;16076;51.194;6.642;2022-07-10T08:37:01;8.55;;;1.80;;
28968;SDS011;16076;51.194;6.642;2022-07-10T08:39:27;6.57;;;1.70;;
28968;SDS011;16076;51.194;6.642;2022-07-10T08:41:52;7.18;;;1.98;;
28968;SDS011;16076;51.194;6.642;2022-07-10T08:44:18;5.55;;;1.85;;
28968;SDS011;16076;51.194;6.642;2022-07-10T08:46:44;9.40;;;1.88;;
28968;SDS011;16076;51.194;6.642;2022-07-10T08:49:12;6.35;;;1.75;;
28968;SDS011;16076;51.194;6.642;2022-07-10T08:51:45;9.20;;;1.83;;
28968;SDS011;16076;51.194;6.642;2022-07-10T08:54:19;11.40;;;2.25;;
28968;SDS011;16076;51.194;6.642;2022-07-10T08:56:46;6.78;;;1.90;;
28968;SDS011;16076;51.194;6.642;2022-07-10T08:59:15;9.07;;;1.98;;
28968;SDS011;16076;51.194;6.642;2022-07-10T09:01:44;10.30;;;2.35;;
28968;SDS011;16076;51.194;6.642;2022-07-10T09:04:20;5.95;;;2.10;;
28968;SDS011;16076;51.194;6.642;2022-07-10T09:06:47;5.45;;;2.13;;
28968;SDS011;16076;51.194;6.642;2022-07-10T09:09:13;6.43;;;1.67;;
28968;SDS011;16076;51.194;6.642;2022-07-10T09:11:39;6.80;;;1.88;;
28968;SDS011;16076;51.194;6.642;2022-07-10T09:14:07;6.78;;;1.60;;
28968;SDS011;16076;51.194;6.642;2022-07-10T09:16:37;7.65;;;1.83;;
28968;SDS011;16076;51.194;6.642;2022-07-10T09:21:50;9.52;;;2.17;;
28968;SDS011;16076;51.194;6.642;2022-07-10T09:24:17;5.13;;;1.88;;
28968;SDS011;16076;51.194;6.642;2022-07-10T09:27:05;8.73;;;2.38;;
28968;SDS011;16076;51.194;6.642;2022-07-10T09:29:34;10.32;;;2.55;;
28968;SDS011;16076;51.194;6.642;2022-07-10T09:32:21;6.03;;;1.65;;
28968;SDS011;16076;51.194;6.642;2022-07-10T09:34:48;10.20;;;2.50;;
28968;SDS011;16076;51.194;6.642;2022-07-10T09:37:36;4.82;;;2.00;;
28968;SDS011;16076;51.194;6.642;2022-07-10T09:40:04;4.30;;;1.88;;
28968;SDS011;16076;51.194;6.642;2022-07-10T09:42:31;7.55;;;1.90;;
28968;SDS011;16076;51.194;6.642;2022-07-10T09:47:41;6.03;;;1.77;;
28968;SDS011;16076;51.194;6.642;2022-07-10T09:55:22;8.63;;;2.75;;
28968;SDS011;16076;51.194;6.642;2022-07-10T09:57:59;5.75;;;2.40;;
28968;SDS011;16076;51.194;6.642;2022-07-10T10:00:33;8.88;;;2.28;;
28968;SDS011;16076;51.194;6.642;2022-07-10T10:03:03;5.47;;;1.85;;
28968;SDS011;16076;51.194;6.642;2022-07-10T10:05:37;6.78;;;2.03;;
28968;SDS011;16076;51.194;6.642;2022-07-10T10:10:55;3.70;;;1.58;;
28968;SDS011;16076;51.194;6.642;2022-07-10T10:13:23;4.80;;;1.50;;
28968;SDS011;16076;51.194;6.642;2022-07-10T10:15:53;3.75;;;1.17;;
28968;SDS011;16076;51.194;6.642;2022-07-10T10:18:23;2.35;;;0.90;;
28968;SDS011;16076;51.194;6.642;2022-07-10T10:20:50;2.08;;;1.00;;
28968;SDS011;16076;51.194;6.642;2022-07-10T10:23:24;1.90;;;1.00;;
28968;SDS011;16076;51.194;6.642;2022-07-10T10:25:51;3.05;;;1.05;;
28968;SDS011;16076;51.194;6.642;2022-07-10T10:28:19;2.45;;;0.88;;
28968;SDS011;16076;51.194;6.642;2022-07-10T10:30:48;2.60;;;1.02;;
28968;SDS011;16076;51.194;6.642;2022-07-10T10:36:06;2.35;;;1.10;;
28968;SDS011;16076;51.194;6.642;2022-07-10T10:41:22;3.88;;;1.55;;
28968;SDS011;16076;51.194;6.642;2022-07-10T10:46:32;4.68;;;1.27;;
28968;SDS011;16076;51.194;6.642;2022-07-10T10:49:05;3.88;;;1.40;;
28968;SDS011;16076;51.194;6.642;2022-07-10T10:54:31;3.00;;;1.27;;
28968;SDS011;16076;51.194;6.642;2022-07-10T10:57:44;3.80;;;1.60;;
28968;SDS011;16076;51.194;6.642;2022-07-10T11:00:11;5.35;;;1.75;;
28968;SDS011;16076;51.194;6.642;2022-07-10T11:02:42;5.50;;;2.55;;
28968;SDS011;16076;51.194;6.642;2022-07-10T11:10:40;3.47;;;1.70;;
28968;SDS011;16076;51.194;6.642;2022-07-10T11:15:40;2.95;;;1.52;;
28968;SDS011;16076;51.194;6.642;2022-07-10T11:18:11;3.17;;;1.50;;
28968;SDS011;16076;51.194;6.642;2022-07-10T11:26:08;4.80;;;1.70;;
28968;SDS011;16076;51.194;6.642;2022-07-10T11:31:33;6.13;;;2.22;;
28968;SDS011;16076;51.194;6.642;2022-07-10T11:34:03;5.07;;;1.98;;
28968;SDS011;16076;51.194;6.642;2022-07-10T11:36:29;3.92;;;2.10;;
28968;SDS011;16076;51.194;6.642;2022-07-10T11:38:58;4.72;;;2.25;;
28968;SDS011;16076;51.194;6.642;2022-07-10T11:41:27;7.38;;;2.15;;
28968;SDS011;16076;51.194;6.642;2022-07-10T11:43:55;4.68;;;1.73;;
28968;SDS011;16076;51.194;6.642;2022-07-10T11:46:25;5.17;;;1.87;;
28968;SDS011;16076;51.194;6.642;2022-07-10T11:48:52;3.90;;;1.30;;
28968;SDS011;16076;51.194;6.642;2022-07-10T11:51:27;5.57;;;2.40;;
28968;SDS011;16076;51.194;6.642;2022-07-10T11:56:22;5.40;;;1.70;;
28968;SDS011;16076;51.194;6.642;2022-07-10T11:58:58;8.10;;;1.70;;
28968;SDS011;16076;51.194;6.642;2022-07-10T12:01:34;3.95;;;1.70;;
28968;SDS011;16076;51.194;6.642;2022-07-10T12:04:06;4.80;;;1.50;;
28968;SDS011;16076;51.194;6.642;2022-07-10T12:06:34;4.68;;;1.65;;
28968;SDS011;16076;51.194;6.642;2022-07-10T12:09:03;5.43;;;1.63;;
28968;SDS011;16076;51.194;6.642;2022-07-10T12:11:33;5.47;;;1.60;;
28968;SDS011;16076;51.194;6.642;2022-07-10T12:16:43;3.10;;;1.35;;
28968;SDS011;16076;51.194;6.642;2022-07-10T12:19:14;5.10;;;2.13;;
28968;SDS011;16076;51.194;6.642;2022-07-10T12:21:45;4.68;;;1.50;;
28968;SDS011;16076;51.194;6.642;2022-07-10T12:24:12;6.30;;;1.67;;
28968;SDS011;16076;51.194;6.642;2022-07-10T12:26:41;5.75;;;1.50;;
28968;SDS011;16076;51.194;6.642;2022-07-10T12:31:46;6.88;;;2.25;;
28968;SDS011;16076;51.194;6.642;2022-07-10T12:34:14;5.57;;;1.77;;
28968;SDS011;16076;51.194;6.642;2022-07-10T12:36:47;8.85;;;1.60;;
28968;SDS011;16076;51.194;6.642;2022-07-10T12:39:21;6.85;;;1.70;;
28968;SDS011;16076;51.194;6.642;2022-07-10T12:42:02;5.40;;;1.83;;
28968;SDS011;16076;51.194;6.642;2022-07-10T12:44:50;5.97;;;2.00;;
28968;SDS011;16076;51.194;6.642;2022-07-10T12:47:15;5.88;;;1.60;;
28968;SDS011;16076;51.194;6.642;2022-07-10T12:52:31;4.57;;;1.30;;
28968;SDS011;16076;51.194;6.642;2022-07-10T12:55:17;4.20;;;1.63;;
28968;SDS011;16076;51.194;6.642;2022-07-10T13:00:23;4.78;;;2.03;;
28968;SDS011;16076;51.194;6.642;2022-07-10T13:02:57;3.35;;;1.45;;
28968;SDS011;16076;51.194;6.642;2022-07-10T13:05:40;7.30;;;1.98;;
28968;SDS011;16076;51.194;6.642;2022-07-10T13:10:40;5.13;;;1.48;;
28968;SDS011;16076;51.194;6.642;2022-07-10T13:13:06;2.63;;;1.30;;
28968;SDS011;16076;51.194;6.642;2022-07-10T13:15:32;6.35;;;1.30;;
28968;SDS011;16076;51.194;6.642;2022-07-10T13:18:16;4.80;;;1.83;;
28968;SDS011;16076;51.194;6.642;2022-07-10T13:20:43;2.97;;;0.88;;
28968;SDS011;16076;51.194;6.642;2022-07-10T13:23:13;5.95;;;1.33;;
28968;SDS011;16076;51.194;6.642;2022-07-10T13:25:44;3.38;;;1.17;;
28968;SDS011;16076;51.194;6.642;2022-07-10T13:28:10;4.75;;;1.48;;
28968;SDS011;16076;51.194;6.642;2022-07-10T13:30:37;2.63;;;0.95;;
28968;SDS011;16076;51.194;6.642;2022-07-10T13:33:02;3.22;;;1.27;;
28968;SDS011;16076;51.194;6.642;2022-07-10T13:35:29;5.43;;;1.67;;
28968;SDS011;16076;51.194;6.642;2022-07-10T13:37:56;3.47;;;1.23;;
28968;SDS011;16076;51.194;6.642;2022-07-10T13:40:25;5.68;;;1.30;;
28968;SDS011;16076;51.194;6.642;2022-07-10T13:42:52;5.05;;;1.40;;
28968;SDS011;16076;51.194;6.642;2022-07-10T13:45:18;5.80;;;2.20;;
28968;SDS011;16076;51.194;6.642;2022-07-10T13:47:44;3.33;;;1.27;;
28968;SDS011;16076;51.194;6.642;2022-07-10T13:50:10;4.43;;;1.00;;
28968;SDS011;16076;51.194;6.642;2022-07-10T13:52:36;1.55;;;0.80;;
28968;SDS011;16076;51.194;6.642;2022-07-10T13:55:02;5.25;;;1.27;;
28968;SDS011;16076;51.194;6.642;2022-07-10T13:57:29;3.53;;;0.90;;
28968;SDS011;16076;51.194;6.642;2022-07-10T13:59:55;2.80;;;0.95;;
28968;SDS011;16076;51.194;6.642;2022-07-10T14:02:21;1.77;;;0.80;;
28968;SDS011;16076;51.194;6.642;2022-07-10T14:04:47;2.88;;;0.85;;
28968;SDS011;16076;51.194;6.642;2022-07-10T14:07:13;2.38;;;1.00;;
28968;SDS011;16076;51.194;6.642;2022-07-10T14:09:39;3.58;;;0.90;;
28968;SDS011;16076;51.194;6.642;2022-07-10T14:12:07;2.88;;;0.95;;
28968;SDS011;16076;51.194;6.642;2022-07-10T14:14:33;1.77;;;0.88;;
28968;SDS011;16076;51.194;6.642;2022-07-10T14:17:01;3.22;;;1.00;;
28968;SDS011;16076;51.194;6.642;2022-07-10T14:19:27;1.20;;;0.63;;
28968;SDS011;16076;51.194;6.642;2022-07-10T14:21:53;2.58;;;1.00;;
28968;SDS011;16076;51.194;6.642;2022-07-10T14:24:19;2.30;;;0.82;;
28968;SDS011;16076;51.194;6.642;2022-07-10T14:26:45;3.03;;;1.10;;
28968;SDS011;16076;51.194;6.642;2022-07-10T14:29:12;2.30;;;0.90;;
28968;SDS011;16076;51.194;6.642;2022-07-10T14:31:38;5.03;;;1.30;;
28968;SDS011;16076;51.194;6.642;2022-07-10T14:34:04;3.35;;;0.82;;
28968;SDS011;16076;51.194;6.642;2022-07-10T14:36:30;3.78;;;1.15;;
28968;SDS011;16076;51.194;6.642;2022-07-10T14:38:56;1.83;;;0.75;;
28968;SDS011;16076;51.194;6.642;2022-07-10T14:41:23;1.85;;;0.90;;
28968;SDS011;16076;51.194;6.642;2022-07-10T14:43:51;1.42;;;0.80;;
28968;SDS011;16076;51.194;6.642;2022-07-10T14:46:17;3.92;;;1.20;;
28968;SDS011;16076;51.194;6.642;2022-07-10T14:48:47;2.70;;;1.13;;
28968;SDS011;16076;51.194;6.642;2022-07-10T14:51:14;2.22;;;0.98;;
28968;SDS011;16076;51.194;6.642;2022-07-10T14:53:40;3.47;;;1.30;;
28968;SDS011;16076;51.194;6.642;2022-07-10T14:56:10;2.60;;;1.20;;
28968;SDS011;16076;51.194;6.642;2022-07-10T14:58:39;3.35;;;1.00;;
28968;SDS011;16076;51.194;6.642;2022-07-10T15:01:05;1.67;;;1.25;;
28968;SDS011;16076;51.194;6.642;2022-07-10T15:03:33;4.90;;;1.10;;
28968;SDS011;16076;51.194;6.642;2022-07-10T15:06:01;2.58;;;0.93;;
28968;SDS011;16076;51.194;6.642;2022-07-10T15:08:27;3.80;;;1.20;;
28968;SDS011;16076;51.194;6.642;2022-07-10T15:10:56;2.88;;;1.20;;
28968;SDS011;16076;51.194;6.642;2022-07-10T15:13:23;7.68;;;1.70;;
28968;SDS011;16076;51.194;6.642;2022-07-10T15:15:49;1.10;;;0.90;;
28968;SDS011;16076;51.194;6.642;2022-07-10T15:18:17;5.25;;;1.17;;
28968;SDS011;16076;51.194;6.642;2022-07-10T15:20:44;3.47;;;1.27;;
28968;SDS011;16076;51.194;6.642;2022-07-10T15:23:10;2.35;;;0.90;;
28968;SDS011;16076;51.194;6.642;2022-07-10T15:25:36;1.90;;;1.00;;
28968;SDS011;16076;51.194;6.642;2022-07-10T15:28:14;1.88;;;1.13;;
28968;SDS011;16076;51.194;6.642;2022-07-10T15:30:39;4.75;;;1.30;;
28968;SDS011;16076;51.194;6.642;2022-07-10T15:33:08;3.80;;;1.67;;
28968;SDS011;16076;51.194;6.642;2022-07-10T15:35:36;3.45;;;1.30;;
28968;SDS011;16076;51.194;6.642;2022-07-10T15:38:02;5.57;;;1.65;;
28968;SDS011;16076;51.194;6.642;2022-07-10T15:40:29;3.83;;;1.38;;
28968;SDS011;16076;51.194;6.642;2022-07-10T15:42:58;3.67;;;1.10;;
28968;SDS011;16076;51.194;6.642;2022-07-10T15:45:27;2.08;;;1.10;;
28968;SDS011;16076;51.194;6.642;2022-07-10T15:47:55;3.38;;;1.25;;
28968;SDS011;16076;51.194;6.642;2022-07-10T15:50:23;2.40;;;1.10;;